Time;durP1;ratioP1;P1;durP2;ratioP2;P2;SDS_P1;SDS_P2;PMS_P1;PMS_P2;Temp;Humidity;BMP_temperature;BMP_pressure;BME280_temperature;BME280_humidity;BME280_pressure;Samples;Min_cycle;Max_cycle;Signal;HPM_P1;HPM_P2
2023/04/21 00:01:59;;;;;;;14.30;6.70;;;8.60;99.90;;;;;;10097444;28;20051;-55
2023/04/21 00:06:51;;;;;;;15.35;6.95;;;8.50;99.90;;;;;;10091036;28;20032;-55
2023/04/21 00:11:42;;;;;;;10.93;6.55;;;8.40;99.90;;;;;;10090555;28;20020;-58
2023/04/21 00:16:33;;;;;;;9.30;5.82;;;8.40;99.90;;;;;;10090438;28;20048;-55
2023/04/21 00:21:24;;;;;;;12.35;7.15;;;8.30;99.90;;;;;;10089671;28;20071;-55
2023/04/21 00:26:15;;;;;;;13.95;6.88;;;8.30;99.90;;;;;;10090260;28;20637;-57
2023/04/21 00:31:06;;;;;;;13.13;6.93;;;8.20;99.90;;;;;;10090436;28;20346;-55
2023/04/21 00:35:58;;;;;;;13.50;7.97;;;8.30;99.90;;;;;;10092109;28;20053;-56
2023/04/21 00:40:48;;;;;;;10.07;5.88;;;8.30;99.90;;;;;;10076223;28;20114;-57
2023/04/21 00:45:39;;;;;;;13.63;6.70;;;8.20;99.90;;;;;;10083289;28;20027;-54
2023/04/21 00:50:31;;;;;;;13.35;7.47;;;8.20;99.90;;;;;;10091492;28;20055;-62
2023/04/21 00:55:23;;;;;;;14.35;7.63;;;8.20;99.90;;;;;;10076475;28;20052;-62
2023/04/21 01:00:14;;;;;;;16.88;7.85;;;8.10;99.90;;;;;;10093934;28;20395;-61
2023/04/21 01:05:07;;;;;;;12.45;7.90;;;8.10;99.90;;;;;;10081520;28;20033;-66
2023/04/21 01:09:58;;;;;;;13.73;7.63;;;8.10;99.90;;;;;;10069449;28;20041;-60
2023/04/21 01:14:49;;;;;;;14.27;7.78;;;8.10;99.90;;;;;;10085102;28;20033;-62
2023/04/21 01:19:42;;;;;;;11.60;6.97;;;8.00;99.90;;;;;;10082580;28;20035;-57
2023/04/21 01:24:41;;;;;;;14.90;7.63;;;8.00;99.90;;;;;;10086219;28;20386;-64
2023/04/21 01:29:33;;;;;;;13.90;7.25;;;7.90;99.90;;;;;;10072369;28;20025;-56
2023/04/21 01:34:24;;;;;;;12.85;7.57;;;7.90;99.90;;;;;;10071400;28;20037;-66
2023/04/21 01:39:15;;;;;;;16.20;8.90;;;7.80;99.90;;;;;;10070482;28;20498;-59
2023/04/21 01:44:06;;;;;;;12.20;7.20;;;7.80;99.90;;;;;;10089968;28;20041;-55
2023/04/21 01:48:56;;;;;;;12.82;7.97;;;7.80;99.90;;;;;;10088381;28;20483;-56
2023/04/21 01:53:47;;;;;;;16.67;8.10;;;7.70;99.90;;;;;;10092375;28;20371;-60
2023/04/21 01:58:37;;;;;;;19.08;9.75;;;7.70;99.90;;;;;;10096033;28;20083;-52
2023/04/21 02:03:28;;;;;;;13.02;7.20;;;7.70;99.90;;;;;;10097731;28;20025;-51
2023/04/21 02:08:20;;;;;;;15.35;8.65;;;7.50;99.90;;;;;;10093569;28;20159;-55
2023/04/21 02:13:11;;;;;;;14.95;7.45;;;7.50;99.90;;;;;;10093605;28;20088;-57
2023/04/21 02:18:02;;;;;;;15.07;7.63;;;7.50;99.90;;;;;;10103274;28;20397;-62
2023/04/21 02:22:52;;;;;;;14.68;8.57;;;7.30;99.90;;;;;;10073638;28;20020;-55
2023/04/21 02:27:43;;;;;;;16.15;8.27;;;7.40;99.90;;;;;;10096396;28;20056;-58
2023/04/21 02:32:34;;;;;;;15.25;8.75;;;7.30;99.90;;;;;;10098002;28;20029;-57
2023/04/21 02:37:25;;;;;;;13.98;8.27;;;7.20;99.90;;;;;;10097837;28;20457;-58
2023/04/21 02:42:16;;;;;;;12.55;7.80;;;7.20;99.90;;;;;;10098970;28;20517;-54
2023/04/21 02:47:06;;;;;;;17.13;8.30;;;7.20;99.90;;;;;;10085924;28;20032;-59
2023/04/21 02:51:57;;;;;;;14.48;8.45;;;7.30;99.90;;;;;;10076455;28;20414;-64
2023/04/21 02:56:48;;;;;;;14.32;6.75;;;7.30;99.90;;;;;;10089770;28;20040;-66
2023/04/21 03:01:38;;;;;;;14.40;7.95;;;7.30;99.90;;;;;;10088951;28;20187;-61
2023/04/21 03:06:31;;;;;;;16.23;8.55;;;7.20;99.90;;;;;;10085929;28;20039;-64
2023/04/21 03:11:22;;;;;;;12.90;7.70;;;7.30;99.90;;;;;;10090145;28;20024;-65
2023/04/21 03:16:12;;;;;;;17.20;8.07;;;7.30;99.90;;;;;;10094295;28;20037;-51
2023/04/21 03:21:03;;;;;;;15.43;7.97;;;7.30;99.90;;;;;;10089975;28;20036;-53
2023/04/21 03:25:54;;;;;;;13.73;7.50;;;7.20;99.90;;;;;;10101942;28;20033;-55
2023/04/21 03:30:44;;;;;;;15.55;8.50;;;7.20;99.90;;;;;;10099146;28;20028;-54
2023/04/21 03:35:35;;;;;;;15.45;9.20;;;7.20;99.90;;;;;;10081237;28;20059;-59
2023/04/21 03:40:26;;;;;;;15.55;8.63;;;7.20;99.90;;;;;;10099933;28;20142;-62
2023/04/21 03:45:21;;;;;;;14.50;7.72;;;7.20;99.90;;;;;;10091590;28;20048;-54
2023/04/21 03:50:11;;;;;;;15.93;9.17;;;7.20;99.90;;;;;;10089863;28;20078;-54
2023/04/21 03:55:03;;;;;;;17.45;8.40;;;7.20;99.90;;;;;;10090593;28;20489;-54
2023/04/21 03:59:54;;;;;;;14.57;8.43;;;7.20;99.90;;;;;;10087955;28;20036;-57
2023/04/21 04:04:46;;;;;;;17.15;8.43;;;7.10;99.90;;;;;;10085029;28;20116;-56
2023/04/21 04:09:36;;;;;;;15.18;8.05;;;7.00;99.90;;;;;;10100583;28;20041;-57
2023/04/21 04:14:27;;;;;;;12.60;6.47;;;6.90;99.90;;;;;;10095082;28;20395;-57
2023/04/21 04:19:18;;;;;;;15.50;7.45;;;6.80;99.90;;;;;;10078548;28;20064;-54
2023/04/21 04:24:10;;;;;;;14.30;7.35;;;6.70;99.90;;;;;;10098665;28;20018;-57
2023/04/21 04:29:01;;;;;;;11.30;7.07;;;6.70;99.90;;;;;;10099482;28;20055;-53
2023/04/21 04:33:52;;;;;;;14.07;7.95;;;6.60;99.90;;;;;;10098054;28;20041;-53
2023/04/21 04:38:42;;;;;;;15.77;8.45;;;6.80;99.90;;;;;;10098909;28;20037;-54
2023/04/21 04:43:35;;;;;;;15.60;8.45;;;6.70;99.90;;;;;;10083336;28;20488;-60
2023/04/21 04:48:26;;;;;;;14.73;7.00;;;6.80;99.90;;;;;;10089896;28;20056;-61
2023/04/21 04:53:16;;;;;;;17.30;7.97;;;6.70;99.90;;;;;;10089306;28;20470;-61
2023/04/21 04:58:07;;;;;;;18.65;8.57;;;6.70;99.90;;;;;;10090200;28;20033;-56
2023/04/21 05:02:58;;;;;;;17.80;8.63;;;6.60;99.90;;;;;;10087574;28;20076;-62
2023/04/21 05:07:48;;;;;;;18.80;9.25;;;6.70;99.90;;;;;;10093323;28;20090;-61
2023/04/21 05:12:39;;;;;;;14.10;8.13;;;6.70;99.90;;;;;;10096921;28;20117;-67
2023/04/21 05:17:29;;;;;;;15.05;7.68;;;6.80;99.90;;;;;;10105519;28;20551;-64
2023/04/21 05:22:20;;;;;;;19.65;9.80;;;6.80;99.90;;;;;;10098658;28;20024;-59
2023/04/21 05:27:11;;;;;;;19.77;9.65;;;6.90;99.90;;;;;;10099452;28;20079;-62
2023/04/21 05:32:01;;;;;;;17.15;9.43;;;6.80;99.90;;;;;;10104475;28;20094;-63
2023/04/21 05:36:52;;;;;;;20.67;9.52;;;6.90;99.90;;;;;;10107679;28;20041;-66
2023/04/21 05:41:43;;;;;;;19.55;7.97;;;6.80;99.90;;;;;;10104297;28;20045;-68
2023/04/21 05:46:36;;;;;;;18.63;9.80;;;6.80;99.90;;;;;;10118775;28;20033;-60
2023/04/21 05:51:27;;;;;;;17.45;9.23;;;6.90;99.90;;;;;;10107375;28;20105;-60
2023/04/21 05:56:18;;;;;;;16.40;8.57;;;7.00;99.90;;;;;;10103202;28;20576;-61
2023/04/21 06:01:09;;;;;;;14.00;8.25;;;7.10;99.90;;;;;;10107824;28;20107;-54
2023/04/21 06:06:01;;;;;;;17.77;8.80;;;7.10;99.90;;;;;;10107617;28;20089;-56
2023/04/21 06:10:52;;;;;;;19.02;9.00;;;7.30;99.90;;;;;;10109931;28;20029;-58
2023/04/21 06:15:43;;;;;;;17.50;9.07;;;7.30;99.90;;;;;;10102763;28;20037;-63
2023/04/21 06:20:34;;;;;;;18.92;10.27;;;7.20;99.90;;;;;;10090332;28;20028;-59
2023/04/21 06:25:24;;;;;;;18.83;10.05;;;7.00;99.90;;;;;;10084593;28;20041;-54
2023/04/21 06:30:16;;;;;;;20.73;10.63;;;6.90;99.90;;;;;;10099243;28;20039;-54
2023/04/21 06:35:07;;;;;;;22.08;11.48;;;6.90;99.90;;;;;;10101061;28;20199;-57
2023/04/21 06:39:58;;;;;;;21.77;10.80;;;7.00;99.90;;;;;;10097717;28;20037;-63
2023/04/21 06:44:48;;;;;;;20.40;10.27;;;7.10;99.90;;;;;;10097084;28;20533;-65
2023/04/21 06:49:39;;;;;;;24.77;10.82;;;7.30;99.90;;;;;;10088194;28;20025;-62
2023/04/21 06:54:30;;;;;;;17.75;9.82;;;7.40;99.90;;;;;;10089266;28;20051;-63
2023/04/21 06:59:21;;;;;;;19.23;9.93;;;7.40;99.90;;;;;;10091715;28;20021;-63
2023/04/21 07:04:11;;;;;;;21.00;9.90;;;7.30;99.90;;;;;;10097063;28;20028;-59
2023/04/21 07:09:02;;;;;;;20.60;10.75;;;7.30;99.90;;;;;;10096204;28;20029;-61
2023/04/21 07:13:53;;;;;;;23.52;11.05;;;7.50;99.90;;;;;;10097780;28;20124;-59
2023/04/21 07:18:43;;;;;;;22.55;11.98;;;7.60;99.90;;;;;;10095617;28;20025;-60
2023/04/21 07:23:34;;;;;;;18.17;9.95;;;7.80;99.90;;;;;;10080274;28;20032;-59
2023/04/21 07:28:25;;;;;;;20.58;10.95;;;7.80;99.90;;;;;;10097867;28;20029;-56
2023/04/21 07:33:16;;;;;;;19.50;9.63;;;7.80;99.90;;;;;;10095465;28;20031;-60
2023/04/21 07:38:06;;;;;;;18.73;10.05;;;7.90;99.90;;;;;;10099261;28;20124;-61
2023/04/21 07:42:57;;;;;;;15.98;8.95;;;7.80;99.90;;;;;;10097060;28;20102;-60
2023/04/21 07:47:47;;;;;;;17.00;8.35;;;8.00;99.90;;;;;;10099353;28;20111;-59
2023/04/21 07:52:38;;;;;;;15.88;8.25;;;8.10;99.90;;;;;;10100273;28;20621;-61
2023/04/21 07:57:32;;;;;;;18.25;9.60;;;8.10;99.90;;;;;;10074518;28;20032;-60
2023/04/21 08:02:23;;;;;;;20.02;9.82;;;8.10;99.90;;;;;;10078644;28;20471;-60
2023/04/21 08:07:14;;;;;;;16.77;9.15;;;8.00;99.90;;;;;;10096728;28;20024;-58
2023/04/21 08:12:04;;;;;;;14.90;8.32;;;8.20;99.90;;;;;;10094830;28;20498;-59
2023/04/21 08:16:55;;;;;;;16.73;8.50;;;8.00;99.90;;;;;;10097241;28;20033;-57
2023/04/21 08:21:46;;;;;;;16.58;8.70;;;8.30;99.90;;;;;;10094964;28;20079;-54
2023/04/21 08:26:36;;;;;;;12.55;7.75;;;8.30;99.90;;;;;;10097548;28;20463;-57
2023/04/21 08:31:27;;;;;;;16.10;8.20;;;8.40;99.90;;;;;;10098629;28;20036;-59
2023/04/21 08:36:18;;;;;;;17.00;8.30;;;8.60;99.90;;;;;;10098683;28;20049;-56
2023/04/21 08:41:09;;;;;;;16.40;9.13;;;8.90;99.90;;;;;;10091347;28;20447;-63
2023/04/21 08:46:07;;;;;;;14.40;8.05;;;8.90;99.90;;;;;;10107741;28;20029;-65
2023/04/21 08:50:57;;;;;;;12.45;7.93;;;8.90;99.90;;;;;;10090740;28;20030;-56
2023/04/21 08:55:53;;;;;;;12.48;6.30;;;9.00;99.90;;;;;;10084051;28;20501;-60
2023/04/21 09:00:43;;;;;;;10.90;6.05;;;9.10;99.90;;;;;;10094303;28;20025;-60
2023/04/21 09:05:36;;;;;;;12.05;7.05;;;9.10;99.90;;;;;;10079172;28;20566;-58
2023/04/21 09:10:26;;;;;;;10.10;6.03;;;9.40;99.90;;;;;;10089080;28;20017;-58
2023/04/21 09:15:20;;;;;;;10.35;5.60;;;9.60;99.90;;;;;;10095788;28;20550;-58
2023/04/21 09:20:17;;;;;;;8.48;5.05;;;9.80;99.90;;;;;;10079987;28;20394;-62
2023/04/21 09:25:08;;;;;;;11.48;6.55;;;10.00;99.90;;;;;;10084711;28;20032;-62
2023/04/21 09:30:07;;;;;;;8.50;5.18;;;10.20;99.90;;;;;;10084920;28;20494;-62
2023/04/21 09:35:00;;;;;;;8.70;5.63;;;10.30;99.90;;;;;;10093686;28;20506;-60
2023/04/21 09:39:51;;;;;;;6.10;4.28;;;10.40;99.90;;;;;;10094964;28;20068;-61
2023/04/21 09:44:42;;;;;;;8.63;4.88;;;10.60;99.90;;;;;;10086560;28;20418;-58
2023/04/21 09:49:35;;;;;;;7.25;4.35;;;10.80;99.90;;;;;;10093256;28;20379;-60
2023/04/21 09:54:32;;;;;;;8.25;5.30;;;10.90;99.90;;;;;;10095432;28;20049;-61
2023/04/21 09:59:42;;;;;;;6.50;3.97;;;11.20;99.90;;;;;;10095728;28;20180;-60
2023/04/21 10:04:35;;;;;;;7.72;3.95;;;11.50;99.90;;;;;;10096340;28;20029;-60
2023/04/21 10:09:49;;;;;;;6.13;3.83;;;11.70;99.90;;;;;;10100392;28;20036;-59
2023/04/21 10:14:40;;;;;;;7.47;4.63;;;11.90;99.90;;;;;;10096547;28;20099;-57
2023/04/21 10:19:37;;;;;;;7.43;4.38;;;12.00;99.90;;;;;;10099603;28;20125;-59
2023/04/21 10:24:29;;;;;;;5.65;3.58;;;12.20;99.90;;;;;;10078683;28;20575;-58
2023/04/21 10:29:29;;;;;;;7.22;4.20;;;12.30;99.90;;;;;;10102680;28;20028;-57
2023/04/21 10:34:34;;;;;;;5.95;4.10;;;12.60;99.90;;;;;;10102270;28;20032;-61
2023/04/21 10:39:25;;;;;;;4.43;3.70;;;12.90;99.90;;;;;;10099668;28;20056;-63
2023/04/21 10:44:16;;;;;;;6.10;3.42;;;13.10;99.90;;;;;;10078320;28;20359;-63
2023/04/21 10:49:08;;;;;;;5.70;3.55;;;13.20;99.90;;;;;;10129177;22;20056;-71
2023/04/21 10:53:58;;;;;;;5.55;3.00;;;13.20;99.90;;;;;;10139269;28;20036;-66
2023/04/21 10:58:51;;;;;;;9.32;2.78;;;13.30;99.90;;;;;;10158550;28;20024;-68
2023/04/21 11:03:42;;;;;;;4.32;2.78;;;13.50;99.90;;;;;;10158017;28;20025;-67
2023/04/21 11:08:32;;;;;;;3.83;3.40;;;13.60;99.90;;;;;;10143142;28;20044;-66
2023/04/21 11:13:26;;;;;;;4.68;2.78;;;13.90;99.90;;;;;;10147167;28;20053;-67
2023/04/21 11:18:17;;;;;;;4.53;3.35;;;14.10;99.90;;;;;;10137591;28;20017;-68
2023/04/21 11:23:08;;;;;;;4.00;2.58;;;14.50;99.90;;;;;;10107593;28;20488;-66
2023/04/21 11:27:58;;;;;;;4.45;2.60;;;15.00;99.90;;;;;;10139544;28;20416;-66
2023/04/21 11:32:55;;;;;;;3.55;3.17;;;15.50;99.90;;;;;;10138650;28;20032;-68
2023/04/21 11:37:49;;;;;;;9.02;5.57;;;16.10;99.90;;;;;;10126542;28;20519;-66
2023/04/21 11:42:40;;;;;;;7.70;3.88;;;16.20;99.90;;;;;;10119386;28;20020;-66
2023/04/21 11:47:30;;;;;;;4.25;2.70;;;16.40;99.90;;;;;;10137437;28;20052;-67
2023/04/21 11:52:21;;;;;;;4.47;3.08;;;16.40;99.90;;;;;;10134582;28;20024;-67
2023/04/21 11:57:12;;;;;;;9.98;3.13;;;16.40;99.90;;;;;;10128944;28;20182;-65
2023/04/21 12:02:02;;;;;;;4.45;3.25;;;16.50;99.90;;;;;;10139246;28;20031;-67
2023/04/21 12:07:01;;;;;;;3.85;2.35;;;16.80;99.90;;;;;;10131432;28;20093;-66
2023/04/21 12:11:53;;;;;;;4.47;2.75;;;16.90;99.90;;;;;;10145777;28;20035;-66
2023/04/21 12:16:46;;;;;;;10.98;3.00;;;17.20;99.90;;;;;;10140551;28;20498;-68
2023/04/21 12:21:40;;;;;;;4.15;2.47;;;17.40;99.90;;;;;;10138384;28;20111;-72
2023/04/21 12:26:31;;;;;;;4.47;2.28;;;17.50;99.90;;;;;;10144870;28;20035;-64
2023/04/21 12:31:21;;;;;;;2.67;2.22;;;17.80;99.90;;;;;;10147286;28;20499;-64
2023/04/21 12:36:12;;;;;;;4.57;2.45;;;17.80;99.90;;;;;;10144479;28;20040;-65
2023/04/21 12:41:03;;;;;;;3.25;2.53;;;17.70;99.90;;;;;;10126220;28;20416;-64
2023/04/21 12:45:53;;;;;;;3.28;2.65;;;18.00;99.90;;;;;;10143727;28;20077;-64
2023/04/21 12:50:45;;;;;;;3.72;2.38;;;18.50;99.90;;;;;;10140123;28;20063;-66
2023/04/21 12:55:36;;;;;;;3.30;3.00;;;18.80;99.90;;;;;;10132202;28;20257;-65
2023/04/21 13:00:27;;;;;;;2.85;2.42;;;19.40;99.80;;;;;;10141459;28;20758;-65
2023/04/21 13:05:18;;;;;;;3.72;2.10;;;19.50;99.30;;;;;;10150643;28;20020;-64
2023/04/21 13:10:09;;;;;;;5.43;2.63;;;19.20;99.10;;;;;;10136168;28;20501;-64
2023/04/21 13:15:00;;;;;;;4.50;2.83;;;20.10;98.30;;;;;;10133360;28;20037;-64
2023/04/21 13:19:51;;;;;;;3.30;2.33;;;19.50;98.00;;;;;;10125232;28;20027;-64
2023/04/21 13:24:41;;;;;;;3.25;2.30;;;19.50;97.80;;;;;;10140807;28;20025;-63
2023/04/21 13:29:33;;;;;;;2.40;2.20;;;22.00;96.40;;;;;;10147283;28;20021;-66
2023/04/21 13:34:24;;;;;;;3.38;2.40;;;21.40;96.00;;;;;;10139801;28;20497;-63
2023/04/21 13:39:15;;;;;;;2.50;1.95;;;19.90;96.50;;;;;;10147683;28;20029;-72
2023/04/21 13:44:05;;;;;;;7.75;3.25;;;18.80;97.00;;;;;;10150285;28;20464;-70
2023/04/21 13:48:56;;;;;;;6.95;3.42;;;18.50;96.80;;;;;;10142702;28;20052;-72
2023/04/21 13:53:47;;;;;;;3.72;2.58;;;18.30;96.90;;;;;;10145426;28;20037;-72
2023/04/21 13:58:38;;;;;;;3.97;2.58;;;18.20;96.40;;;;;;10153808;28;20359;-71
2023/04/21 14:03:29;;;;;;;8.25;3.45;;;19.00;96.00;;;;;;10150536;28;20060;-74
2023/04/21 14:08:20;;;;;;;5.70;3.05;;;21.30;95.10;;;;;;10131566;28;20028;-75
2023/04/21 14:13:11;;;;;;;4.82;3.25;;;23.10;94.10;;;;;;10151769;28;20033;-73
2023/04/21 14:18:01;;;;;;;5.68;3.63;;;24.40;93.50;;;;;;10145972;28;20536;-69
2023/04/21 14:22:52;;;;;;;5.22;3.25;;;23.80;93.50;;;;;;10153259;28;20028;-71
2023/04/21 14:27:43;;;;;;;4.55;3.67;;;24.00;93.10;;;;;;10176660;28;20033;-71
2023/04/21 14:32:33;;;;;;;5.45;3.50;;;25.00;92.30;;;;;;10176616;28;20090;-71
2023/04/21 14:37:25;;;;;;;3.53;2.95;;;25.60;91.80;;;;;;10151654;28;20266;-72
2023/04/21 14:42:15;;;;;;;3.38;3.08;;;25.90;91.20;;;;;;10148770;28;20021;-68
2023/04/21 14:47:06;;;;;;;4.60;2.67;;;26.60;90.60;;;;;;10132168;28;20052;-67
2023/04/21 14:51:57;;;;;;;3.47;2.75;;;27.40;89.90;;;;;;10159571;28;20047;-71
2023/04/21 14:56:47;;;;;;;5.20;3.05;;;27.30;87.80;;;;;;10156255;28;20564;-68
2023/04/21 15:01:38;;;;;;;4.03;3.63;;;26.90;86.30;;;;;;10170982;28;20619;-67
2023/04/21 15:06:30;;;;;;;5.10;3.95;;;27.10;84.50;;;;;;10177280;28;20067;-67
2023/04/21 15:11:21;;;;;;;5.13;4.27;;;27.40;82.90;;;;;;10171160;28;20044;-71
2023/04/21 15:16:11;;;;;;;5.72;5.05;;;27.60;81.90;;;;;;10163331;28;20532;-69
2023/04/21 15:21:02;;;;;;;6.93;5.43;;;28.30;80.70;;;;;;10150319;28;20028;-71
2023/04/21 15:25:53;;;;;;;5.47;4.28;;;28.10;79.30;;;;;;10128229;28;20037;-65
2023/04/21 15:30:43;;;;;;;4.65;4.13;;;28.90;77.60;;;;;;10130812;28;20021;-71
2023/04/21 15:35:34;;;;;;;3.90;3.50;;;29.40;76.00;;;;;;10140422;28;20036;-66
2023/04/21 15:40:25;;;;;;;6.43;3.72;;;28.50;74.40;;;;;;10140251;28;20059;-66
2023/04/21 15:45:16;;;;;;;5.38;3.08;;;28.00;74.20;;;;;;10142816;28;20028;-68
2023/04/21 15:50:07;;;;;;;2.88;2.38;;;26.20;74.10;;;;;;10143585;28;20059;-71
2023/04/21 15:54:59;;;;;;;3.00;2.67;;;24.30;76.00;;;;;;10145489;28;20075;-66
2023/04/21 15:59:49;;;;;;;3.53;2.50;;;22.50;76.90;;;;;;10134203;28;20260;-69
2023/04/21 16:04:40;;;;;;;3.60;1.98;;;21.40;77.40;;;;;;10143141;28;20040;-67
2023/04/21 16:09:31;;;;;;;3.13;1.92;;;25.10;73.20;;;;;;10140863;28;20032;-67
2023/04/21 16:14:21;;;;;;;2.75;2.35;;;28.00;69.70;;;;;;10138736;28;20108;-69
2023/04/21 16:19:12;;;;;;;2.90;2.08;;;28.20;69.00;;;;;;10129402;28;20111;-71
2023/04/21 16:24:03;;;;;;;4.47;2.50;;;25.90;70.90;;;;;;10147850;28;20032;-72
2023/04/21 16:28:55;;;;;;;3.50;2.58;;;23.80;72.70;;;;;;10164564;28;20134;-67
2023/04/21 16:33:46;;;;;;;3.67;2.55;;;23.50;72.80;;;;;;10168594;28;20062;-68
2023/04/21 16:38:37;;;;;;;10.25;3.17;;;23.70;72.50;;;;;;10140828;28;20035;-66
2023/04/21 16:43:27;;;;;;;3.70;2.88;;;22.90;73.60;;;;;;10138960;28;20031;-65
2023/04/21 16:48:18;;;;;;;4.57;2.75;;;22.90;73.50;;;;;;10140608;28;20051;-64
2023/04/21 16:53:09;;;;;;;4.38;2.60;;;21.70;75.00;;;;;;10155120;28;20035;-66
2023/04/21 16:57:59;;;;;;;3.13;2.00;;;20.50;76.50;;;;;;10144580;28;20024;-66
2023/04/21 17:02:50;;;;;;;6.40;2.63;;;20.20;77.00;;;;;;10153279;28;20464;-66
2023/04/21 17:07:41;;;;;;;4.47;3.03;;;19.80;77.60;;;;;;10162787;28;20028;-65
2023/04/21 17:12:32;;;;;;;4.72;1.90;;;19.50;78.00;;;;;;10143255;28;20660;-65
2023/04/21 17:17:23;;;;;;;5.03;2.28;;;19.10;78.60;;;;;;10158520;28;20090;-65
2023/04/21 17:22:14;;;;;;;5.75;2.80;;;18.80;79.10;;;;;;10146008;28;20353;-66
2023/04/21 17:27:05;;;;;;;4.13;2.67;;;18.70;79.30;;;;;;10150743;28;20016;-66
2023/04/21 17:31:56;;;;;;;5.45;3.60;;;18.60;79.50;;;;;;10153069;28;20035;-73
2023/04/21 17:36:46;;;;;;;5.93;3.53;;;18.40;79.90;;;;;;10130249;28;20028;-70
2023/04/21 17:41:37;;;;;;;5.72;4.05;;;18.30;80.20;;;;;;10138985;28;20255;-75
2023/04/21 17:46:27;;;;;;;7.05;3.97;;;18.40;80.50;;;;;;10143022;28;20013;-73
2023/04/21 17:51:18;;;;;;;5.72;3.35;;;18.30;81.00;;;;;;10148715;28;20054;-72
2023/04/21 17:56:10;;;;;;;6.35;4.13;;;18.30;81.40;;;;;;10151571;28;20033;-74
2023/04/21 18:01:01;;;;;;;7.72;4.18;;;18.10;82.00;;;;;;10146732;28;20085;-73
2023/04/21 18:05:53;;;;;;;6.13;3.80;;;18.00;82.40;;;;;;10153200;28;20051;-71
2023/04/21 18:10:44;;;;;;;5.35;3.63;;;18.00;82.90;;;;;;10162367;28;20078;-74
2023/04/21 18:15:34;;;;;;;5.22;2.90;;;17.80;83.50;;;;;;10141872;28;20117;-70
2023/04/21 18:20:25;;;;;;;6.78;3.05;;;17.60;83.90;;;;;;10139779;28;20078;-71
2023/04/21 18:25:16;;;;;;;6.43;2.97;;;17.50;84.40;;;;;;10132173;28;20437;-70
2023/04/21 18:30:08;;;;;;;3.85;2.75;;;17.40;84.70;;;;;;10147536;28;20033;-72
2023/04/21 18:34:59;;;;;;;5.65;3.28;;;17.40;85.10;;;;;;10165477;28;20101;-72
2023/04/21 18:39:50;;;;;;;4.53;2.63;;;17.30;85.20;;;;;;10142402;28;20501;-74
2023/04/21 18:44:41;;;;;;;7.93;4.10;;;17.30;85.30;;;;;;10152735;28;20067;-73
2023/04/21 18:49:31;;;;;;;4.68;2.65;;;17.40;85.60;;;;;;10146685;28;20544;-66
2023/04/21 18:54:22;;;;;;;5.25;2.90;;;17.30;85.80;;;;;;10154274;28;20040;-67
2023/04/21 18:59:13;;;;;;;5.38;2.70;;;17.30;86.00;;;;;;10148933;28;20027;-67
2023/04/21 19:04:04;;;;;;;5.10;2.50;;;17.20;86.30;;;;;;10161945;28;20031;-66
2023/04/21 19:08:55;;;;;;;3.97;2.88;;;17.20;86.60;;;;;;10151644;28;20554;-67
2023/04/21 19:13:47;;;;;;;6.78;3.40;;;17.20;86.80;;;;;;10150367;28;20512;-66
2023/04/21 19:18:37;;;;;;;5.85;2.97;;;17.20;86.80;;;;;;10110833;28;20025;-67
2023/04/21 19:23:28;;;;;;;3.72;3.17;;;17.10;87.20;;;;;;10110442;28;20036;-73
2023/04/21 19:28:19;;;;;;;5.95;3.28;;;17.00;87.70;;;;;;10139099;28;20036;-65
2023/04/21 19:33:10;;;;;;;6.75;3.25;;;17.00;87.80;;;;;;10133026;28;20088;-64
2023/04/21 19:38:00;;;;;;;6.60;2.95;;;17.00;88.00;;;;;;10121803;28;20052;-65
2023/04/21 19:42:51;;;;;;;3.78;3.03;;;17.00;88.30;;;;;;10132586;28;20934;-63
2023/04/21 19:47:41;;;;;;;4.68;2.92;;;16.90;88.40;;;;;;10132573;28;20097;-66
2023/04/21 19:52:32;;;;;;;4.78;2.72;;;16.90;88.90;;;;;;10128892;28;20035;-65
2023/04/21 19:57:23;;;;;;;6.55;3.17;;;16.90;88.90;;;;;;10130872;28;20044;-65
2023/04/21 20:02:14;;;;;;;4.90;3.58;;;16.80;89.10;;;;;;10124877;28;20032;-65
2023/04/21 20:07:05;;;;;;;5.47;3.10;;;16.80;89.40;;;;;;10125183;28;20034;-67
2023/04/21 20:11:56;;;;;;;7.20;3.65;;;16.70;89.60;;;;;;10132392;28;20374;-66
2023/04/21 20:16:47;;;;;;;4.80;3.20;;;16.80;89.80;;;;;;10116737;28;20583;-68
2023/04/21 20:21:38;;;;;;;5.03;3.17;;;16.70;90.00;;;;;;10131887;28;20097;-66
2023/04/21 20:26:28;;;;;;;6.38;2.97;;;16.70;90.10;;;;;;10136125;28;20571;-66
2023/04/21 20:31:22;;;;;;;5.65;2.97;;;16.60;90.20;;;;;;10140279;28;20051;-64
2023/04/21 20:36:12;;;;;;;4.88;3.00;;;16.60;90.30;;;;;;10135110;28;20037;-66
2023/04/21 20:41:03;;;;;;;3.08;2.45;;;16.60;90.40;;;;;;10139910;28;20446;-65
2023/04/21 20:45:54;;;;;;;4.85;2.40;;;16.50;90.40;;;;;;10137194;28;20094;-65
2023/04/21 20:50:45;;;;;;;4.07;2.10;;;16.60;90.50;;;;;;10145056;28;20131;-68
2023/04/21 20:55:36;;;;;;;4.50;2.50;;;16.60;90.60;;;;;;10159579;28;20039;-63
2023/04/21 21:00:26;;;;;;;3.47;2.28;;;16.50;90.60;;;;;;10157267;28;20420;-63
2023/04/21 21:05:17;;;;;;;4.70;3.00;;;16.40;90.80;;;;;;10164011;28;20063;-63
2023/04/21 21:10:10;;;;;;;5.13;3.08;;;16.40;90.80;;;;;;10154790;28;20036;-63
2023/04/21 21:15:00;;;;;;;5.68;3.22;;;16.40;90.90;;;;;;10150138;28;20033;-63
2023/04/21 21:19:51;;;;;;;3.47;2.60;;;16.40;91.00;;;;;;10154517;28;20024;-63
2023/04/21 21:24:42;;;;;;;4.45;2.85;;;16.30;91.10;;;;;;10143484;28;20082;-63
2023/04/21 21:29:33;;;;;;;4.20;2.75;;;16.20;91.30;;;;;;10143849;28;20393;-63
2023/04/21 21:34:23;;;;;;;6.05;3.15;;;16.20;91.30;;;;;;10136966;28;20045;-63
2023/04/21 21:39:14;;;;;;;5.18;2.88;;;16.20;91.40;;;;;;10139411;28;20436;-62
2023/04/21 21:44:05;;;;;;;4.85;3.42;;;16.20;91.70;;;;;;10139299;28;20020;-63
2023/04/21 21:48:55;;;;;;;3.78;2.95;;;16.20;91.60;;;;;;10137479;28;20045;-62
2023/04/21 21:53:46;;;;;;;6.05;3.20;;;16.10;91.60;;;;;;10136101;28;20052;-62
2023/04/21 21:58:37;;;;;;;4.82;3.20;;;16.10;91.80;;;;;;10139847;28;20525;-63
2023/04/21 22:03:27;;;;;;;5.63;3.63;;;16.00;91.80;;;;;;10166851;28;20378;-63
2023/04/21 22:08:18;;;;;;;6.82;3.67;;;16.00;92.00;;;;;;10170604;28;20032;-63
2023/04/21 22:13:09;;;;;;;5.90;3.45;;;16.00;92.10;;;;;;10152866;28;20036;-63
2023/04/21 22:18:00;;;;;;;3.42;3.13;;;16.00;92.10;;;;;;10143277;28;20075;-62
2023/04/21 22:22:52;;;;;;;4.93;3.28;;;15.90;92.20;;;;;;10155930;28;20029;-63
2023/04/21 22:27:43;;;;;;;5.63;3.10;;;15.90;92.30;;;;;;10172754;28;20020;-63
2023/04/21 22:32:33;;;;;;;5.50;3.08;;;15.90;92.40;;;;;;10185116;28;20039;-64
2023/04/21 22:37:24;;;;;;;4.00;2.97;;;15.80;92.40;;;;;;10149758;28;20213;-63
2023/04/21 22:42:15;;;;;;;4.22;2.80;;;15.80;92.50;;;;;;10150283;28;20017;-63
2023/04/21 22:47:06;;;;;;;4.75;2.90;;;15.80;92.50;;;;;;10147166;28;20521;-62
2023/04/21 22:51:56;;;;;;;3.95;2.70;;;15.70;92.60;;;;;;10161986;28;20106;-63
2023/04/21 22:56:47;;;;;;;5.18;2.88;;;15.80;92.70;;;;;;10165905;28;20047;-63
2023/04/21 23:01:38;;;;;;;7.10;2.80;;;15.70;92.80;;;;;;10160150;28;20031;-62
2023/04/21 23:06:28;;;;;;;6.60;3.10;;;15.70;92.80;;;;;;10166977;28;20066;-62
2023/04/21 23:11:19;;;;;;;5.72;3.25;;;15.70;92.90;;;;;;10168827;28;20024;-63
2023/04/21 23:16:10;;;;;;;3.70;2.97;;;15.60;93.10;;;;;;10162364;28;20237;-62
2023/04/21 23:21:00;;;;;;;3.92;2.50;;;15.60;93.10;;;;;;10150410;28;20028;-63
2023/04/21 23:25:51;;;;;;;3.50;2.72;;;15.60;93.20;;;;;;10145828;28;20040;-64
2023/04/21 23:30:42;;;;;;;5.60;3.40;;;15.50;93.30;;;;;;10154868;28;20385;-61
2023/04/21 23:35:32;;;;;;;5.25;3.03;;;15.50;93.40;;;;;;10150734;28;20040;-62
2023/04/21 23:40:23;;;;;;;5.15;3.00;;;15.50;93.50;;;;;;10151662;28;20058;-63
2023/04/21 23:45:14;;;;;;;4.95;2.65;;;15.40;93.50;;;;;;10144269;28;20150;-63
2023/04/21 23:50:05;;;;;;;5.32;2.95;;;15.30;93.60;;;;;;10165956;28;20041;-62
2023/04/21 23:54:56;;;;;;;3.33;2.63;;;15.40;93.60;;;;;;10165942;28;20514;-63
2023/04/21 23:59:47;;;;;;;4.03;3.10;;;15.50;93.70;;;;;;10136434;28;20070;-63
